KASE/ASE METAR and TAF weather

Enter ICAO airport designator
Station Type Date Time Source
KASE METAR 2019/05/27 09:53 UTC NOAA

KASE 270953Z AUTO 17007KT 130V190 10SM CLR 06/M03 A2994 RMK AO2 SLP034 T00561028


Station Type Date Time Source
KASE Decoded METAR 2019/05/27 09:53 UTC NOAA

ASPEN-PITKIN COUNTY AIRPORT, CO, United States (KASE) 39-14N 106-52W 2354M
May 27, 2019 - 05:53 AM EDT / 2019.05.27 0953 UTC
Wind: from the S (170 degrees) at 8 MPH (7 KT) (direction variable):0
Visibility: 10 mile(s):0
Sky conditions: clear
Temperature: 42.1 F (5.6 C)
Dew Point: 27.0 F (-2.8 C)
Relative Humidity: 54%
Pressure (altimeter): 29.94 in. Hg (1013 hPa)
ob: KASE 270953Z AUTO 17007KT 130V190 10SM CLR 06/M03 A2994 RMK AO2 SLP034 T00561028
cycle: 10

Station Type Date Time Source
KASE TAF 2019/05/27 06:22 UTC NOAA

TAF KASE 270520Z 2706/2806 14007KT P6SM SKC
FM271700 18008KT P6SM VCSH SCT060 BKN100
FM280000 22007KT 6SM -SHRA BR SCT050 BKN090
FM280300 27005KT 6SM -SHRASN BR SCT060 OVC080
FM280500 VRB04KT 6SM -SHSN BR BKN050

Example: see airport list